OOCL San Francisco — VRWN4 — position and weather

sailwx.info

Track history (hours):
 
Tides and Currents Weather Stations Pressure Air Temp Water Temp Dewpoint Dewpoint Depression Visibility Wind Speed Wind Dir Waves Ship Positions

OOCL San Francisco

Last reported at 2017-Oct-18 02:30 UTC. Time now 2017-Oct-18 02:35 UTC.
Position N 22°34' E 114°16'.

Length 277.4 m; beam 40 m; draft 14 m.

Type: Ship. MMSI: 477806000.

Date/timePositionNaut miles runAvg speedWind from/ knotsBaromVisibWave heightAir tempDewpointWater temp
2017-Oct-18 02:30N 22°34' E 114°16'0 0.0
2017-Oct-18 02:00N 22°34' E 114°16'0 0.0
2017-Oct-18 01:30N 22°34' E 114°16'0 0.0
2017-Oct-18 01:00N 22°34' E 114°16'0 0.0
2017-Oct-18 00:30N 22°34' E 114°16'0 0.0
2017-Oct-18 00:00N 22°34' E 114°16'0 0.0
2017-Oct-17 23:30N 22°34' E 114°16'0 0.0
2017-Oct-17 23:00N 22°34' E 114°16'0 0.0
2017-Oct-17 22:30N 22°34' E 114°16'0 0.0
2017-Oct-17 22:00N 22°34' E 114°16'0 0.0
2017-Oct-17 21:30N 22°34' E 114°16'0 0.0
2017-Oct-17 21:00N 22°34' E 114°16'0 0.0
2017-Oct-17 20:30N 22°34' E 114°16'0 0.0
2017-Oct-17 20:00N 22°34' E 114°16'0 0.0
2017-Oct-17 19:30N 22°34' E 114°16'0 0.0
2017-Oct-17 19:00N 22°34' E 114°16'0 0.0
2017-Oct-17 18:30N 22°34' E 114°16'0 0.0
2017-Oct-17 18:00N 22°34' E 114°16'0 0.0
2017-Oct-17 17:30N 22°34' E 114°16'0 0.0
2017-Oct-17 17:00N 22°34' E 114°16'0 0.0
2017-Oct-17 16:30N 22°34' E 114°16'0 0.0
2017-Oct-17 16:00N 22°34' E 114°16'0 0.0
2017-Oct-17 15:15N 22°34' E 114°16'0 0.0
2017-Oct-17 15:00N 22°34' E 114°16'0 0.0
2017-Oct-17 14:30N 22°34' E 114°16'0 0.0
2017-Oct-17 14:00N 22°34' E 114°16'0 0.0
2017-Oct-17 13:30N 22°34' E 114°16'0 0.0
2017-Oct-17 13:00N 22°34' E 114°16'0 0.0
2017-Oct-17 12:30N 22°34' E 114°16'1 1.2
2017-Oct-17 12:00N 22°34' E 114°16'5 9.4
2017-Oct-17 11:31N 22°33' E 114°21'611.7
2017-Oct-17 11:00N 22°30' E 114°26'3 5.7
2017-Oct-17 10:30N 22°27' E 114°28'4 8.1
2017-Oct-17 10:00N 22°25' E 114°32'3 0.2
2017-Oct-16 21:34N 22°26' E 114°34'1 0.3
2017-Oct-16 18:58N 22°25' E 114°33'612.0
2017-Oct-16 18:30N 22°21' E 114°30'  
2017-Oct-12 17:18N 22°32' E 120°06'310.2
2017-Oct-12 17:00N 22°32' E 120°09'510.0
2017-Oct-12 16:30N 22°33' E 120°14'5 6.8
2017-Oct-12 15:50N 22°33' E 120°19'1 0.1
2017-Oct-12 05:40N 22°34' E 120°19'2 3.4
2017-Oct-12 05:11N 22°33' E 120°18'1 6.6
2017-Oct-12 05:00N 22°32' E 120°16'1 1.5
2017-Oct-12 04:30N 22°32' E 120°16'2 4.4
2017-Oct-12 04:00N 22°32' E 120°13'814.9
2017-Oct-12 03:30N 22°38' E 120°09'  
Track history (hours):
 
Tides and Currents Weather Stations Pressure Air Temp Water Temp Dewpoint Dewpoint Depression Visibility Wind Speed Wind Dir Waves Ship Positions

OOCL San Francisco

Last reported at 2017-Oct-18 02:30 UTC. Time now 2017-Oct-18 02:35 UTC.
Position N 22°34' E 114°16'.

Length 277.4 m; beam 40 m; draft 14 m.

Type: Ship. MMSI: 477806000.

Date/timePositionNaut miles runAvg speedWind from/ knotsBaromVisibWave heightAir tempDewpointWater temp
2017-Oct-18 02:30N 22°34' E 114°16'0 0.0
2017-Oct-18 02:00N 22°34' E 114°16'0 0.0
2017-Oct-18 01:30N 22°34' E 114°16'0 0.0
2017-Oct-18 01:00N 22°34' E 114°16'0 0.0
2017-Oct-18 00:30N 22°34' E 114°16'0 0.0
2017-Oct-18 00:00N 22°34' E 114°16'0 0.0
2017-Oct-17 23:30N 22°34' E 114°16'0 0.0
2017-Oct-17 23:00N 22°34' E 114°16'0 0.0
2017-Oct-17 22:30N 22°34' E 114°16'0 0.0
2017-Oct-17 22:00N 22°34' E 114°16'0 0.0
2017-Oct-17 21:30N 22°34' E 114°16'0 0.0
2017-Oct-17 21:00N 22°34' E 114°16'0 0.0
2017-Oct-17 20:30N 22°34' E 114°16'0 0.0
2017-Oct-17 20:00N 22°34' E 114°16'0 0.0
2017-Oct-17 19:30N 22°34' E 114°16'0 0.0
2017-Oct-17 19:00N 22°34' E 114°16'0 0.0
2017-Oct-17 18:30N 22°34' E 114°16'0 0.0
2017-Oct-17 18:00N 22°34' E 114°16'0 0.0
2017-Oct-17 17:30N 22°34' E 114°16'0 0.0
2017-Oct-17 17:00N 22°34' E 114°16'0 0.0
2017-Oct-17 16:30N 22°34' E 114°16'0 0.0
2017-Oct-17 16:00N 22°34' E 114°16'0 0.0
2017-Oct-17 15:15N 22°34' E 114°16'0 0.0
2017-Oct-17 15:00N 22°34' E 114°16'0 0.0
2017-Oct-17 14:30N 22°34' E 114°16'0 0.0
2017-Oct-17 14:00N 22°34' E 114°16'0 0.0
2017-Oct-17 13:30N 22°34' E 114°16'0 0.0
2017-Oct-17 13:00N 22°34' E 114°16'0 0.0
2017-Oct-17 12:30N 22°34' E 114°16'1 1.2
2017-Oct-17 12:00N 22°34' E 114°16'5 9.4
2017-Oct-17 11:31N 22°33' E 114°21'611.7
2017-Oct-17 11:00N 22°30' E 114°26'3 5.7
2017-Oct-17 10:30N 22°27' E 114°28'4 8.1
2017-Oct-17 10:00N 22°25' E 114°32'3 0.2
2017-Oct-16 21:34N 22°26' E 114°34'1 0.3
2017-Oct-16 18:58N 22°25' E 114°33'612.0
2017-Oct-16 18:30N 22°21' E 114°30'  
2017-Oct-12 17:18N 22°32' E 120°06'310.2
2017-Oct-12 17:00N 22°32' E 120°09'510.0
2017-Oct-12 16:30N 22°33' E 120°14'5 6.8
2017-Oct-12 15:50N 22°33' E 120°19'1 0.1
2017-Oct-12 05:40N 22°34' E 120°19'2 3.4
2017-Oct-12 05:11N 22°33' E 120°18'1 6.6
2017-Oct-12 05:00N 22°32' E 120°16'1 1.5
2017-Oct-12 04:30N 22°32' E 120°16'2 4.4
2017-Oct-12 04:00N 22°32' E 120°13'814.9
2017-Oct-12 03:30N 22°38' E 120°09'  

Dump ship's entire track history